sensor_id;sensor_type;location;lat;lon;timestamp;P1;durP1;ratioP1;P2;durP2;ratioP2
40781;SDS011;26493;51.938;7.626;2023-09-19T00:00:57;18.08;;;6.45;;
40781;SDS011;26493;51.938;7.626;2023-09-19T00:03:23;15.40;;;6.75;;
40781;SDS011;26493;51.938;7.626;2023-09-19T00:05:53;15.95;;;6.50;;
40781;SDS011;26493;51.938;7.626;2023-09-19T00:08:20;18.48;;;6.70;;
40781;SDS011;26493;51.938;7.626;2023-09-19T00:10:49;24.67;;;7.05;;
40781;SDS011;26493;51.938;7.626;2023-09-19T00:13:16;19.27;;;6.38;;
40781;SDS011;26493;51.938;7.626;2023-09-19T00:15:43;20.67;;;6.60;;
40781;SDS011;26493;51.938;7.626;2023-09-19T00:18:13;19.42;;;7.18;;
40781;SDS011;26493;51.938;7.626;2023-09-19T00:20:40;18.33;;;7.00;;
40781;SDS011;26493;51.938;7.626;2023-09-19T00:23:07;16.85;;;6.20;;
40781;SDS011;26493;51.938;7.626;2023-09-19T00:25:34;19.15;;;6.50;;
40781;SDS011;26493;51.938;7.626;2023-09-19T00:28:00;15.77;;;6.03;;
40781;SDS011;26493;51.938;7.626;2023-09-19T00:30:26;17.95;;;5.90;;
40781;SDS011;26493;51.938;7.626;2023-09-19T00:32:52;16.85;;;6.38;;
40781;SDS011;26493;51.938;7.626;2023-09-19T00:35:22;18.38;;;6.35;;
40781;SDS011;26493;51.938;7.626;2023-09-19T00:37:49;18.40;;;6.30;;
40781;SDS011;26493;51.938;7.626;2023-09-19T00:40:15;21.38;;;6.60;;
40781;SDS011;26493;51.938;7.626;2023-09-19T00:42:42;16.48;;;6.53;;
40781;SDS011;26493;51.938;7.626;2023-09-19T00:45:09;18.52;;;7.00;;
40781;SDS011;26493;51.938;7.626;2023-09-19T00:47:42;16.75;;;6.85;;
40781;SDS011;26493;51.938;7.626;2023-09-19T00:50:09;20.40;;;6.60;;
40781;SDS011;26493;51.938;7.626;2023-09-19T00:52:38;18.10;;;7.00;;
40781;SDS011;26493;51.938;7.626;2023-09-19T00:55:08;18.90;;;8.00;;
40781;SDS011;26493;51.938;7.626;2023-09-19T00:57:35;19.38;;;7.20;;
40781;SDS011;26493;51.938;7.626;2023-09-19T01:00:03;19.65;;;6.63;;
40781;SDS011;26493;51.938;7.626;2023-09-19T01:02:33;19.67;;;7.50;;
40781;SDS011;26493;51.938;7.626;2023-09-19T01:05:00;19.70;;;6.97;;
40781;SDS011;26493;51.938;7.626;2023-09-19T01:07:26;19.48;;;8.50;;
40781;SDS011;26493;51.938;7.626;2023-09-19T01:09:55;16.27;;;6.50;;
40781;SDS011;26493;51.938;7.626;2023-09-19T01:12:25;25.73;;;8.30;;
40781;SDS011;26493;51.938;7.626;2023-09-19T01:14:54;18.90;;;6.97;;
40781;SDS011;26493;51.938;7.626;2023-09-19T01:17:29;21.77;;;7.15;;
40781;SDS011;26493;51.938;7.626;2023-09-19T01:22:53;21.10;;;8.40;;
40781;SDS011;26493;51.938;7.626;2023-09-19T01:30:46;21.63;;;7.30;;
40781;SDS011;26493;51.938;7.626;2023-09-19T01:33:13;19.13;;;7.80;;
40781;SDS011;26493;51.938;7.626;2023-09-19T01:35:39;19.85;;;7.50;;
40781;SDS011;26493;51.938;7.626;2023-09-19T01:38:06;23.88;;;8.05;;
40781;SDS011;26493;51.938;7.626;2023-09-19T01:40:39;21.17;;;7.32;;
40781;SDS011;26493;51.938;7.626;2023-09-19T01:43:17;20.85;;;8.27;;
40781;SDS011;26493;51.938;7.626;2023-09-19T01:45:58;20.70;;;7.30;;
40781;SDS011;26493;51.938;7.626;2023-09-19T01:51:10;21.73;;;7.25;;
40781;SDS011;26493;51.938;7.626;2023-09-19T01:56:10;20.65;;;8.45;;
40781;SDS011;26493;51.938;7.626;2023-09-19T01:58:51;22.38;;;8.10;;
40781;SDS011;26493;51.938;7.626;2023-09-19T02:01:20;24.85;;;7.90;;
40781;SDS011;26493;51.938;7.626;2023-09-19T02:06:16;19.45;;;7.43;;
40781;SDS011;26493;51.938;7.626;2023-09-19T02:08:44;23.83;;;8.40;;
40781;SDS011;26493;51.938;7.626;2023-09-19T02:11:12;21.45;;;8.40;;
40781;SDS011;26493;51.938;7.626;2023-09-19T02:13:39;20.58;;;8.68;;
40781;SDS011;26493;51.938;7.626;2023-09-19T02:16:05;19.95;;;8.45;;
40781;SDS011;26493;51.938;7.626;2023-09-19T02:21:01;22.05;;;7.82;;
40781;SDS011;26493;51.938;7.626;2023-09-19T02:23:27;21.30;;;8.60;;
40781;SDS011;26493;51.938;7.626;2023-09-19T02:25:55;19.17;;;8.77;;
40781;SDS011;26493;51.938;7.626;2023-09-19T02:28:25;24.38;;;8.48;;
40781;SDS011;26493;51.938;7.626;2023-09-19T02:30:55;21.67;;;8.20;;
40781;SDS011;26493;51.938;7.626;2023-09-19T02:33:21;19.17;;;7.97;;
40781;SDS011;26493;51.938;7.626;2023-09-19T02:35:47;20.73;;;7.50;;
40781;SDS011;26493;51.938;7.626;2023-09-19T02:38:13;19.83;;;8.05;;
40781;SDS011;26493;51.938;7.626;2023-09-19T02:40:43;19.90;;;8.30;;
40781;SDS011;26493;51.938;7.626;2023-09-19T02:43:09;25.42;;;8.45;;
40781;SDS011;26493;51.938;7.626;2023-09-19T02:45:35;20.02;;;7.63;;
40781;SDS011;26493;51.938;7.626;2023-09-19T02:48:01;22.08;;;8.23;;
40781;SDS011;26493;51.938;7.626;2023-09-19T02:50:29;17.73;;;8.35;;
40781;SDS011;26493;51.938;7.626;2023-09-19T02:52:55;20.10;;;8.07;;
40781;SDS011;26493;51.938;7.626;2023-09-19T02:55:21;22.00;;;9.82;;
40781;SDS011;26493;51.938;7.626;2023-09-19T02:57:51;21.98;;;8.30;;
40781;SDS011;26493;51.938;7.626;2023-09-19T03:00:19;21.23;;;8.45;;
40781;SDS011;26493;51.938;7.626;2023-09-19T03:02:52;22.73;;;9.63;;
40781;SDS011;26493;51.938;7.626;2023-09-19T03:05:19;19.65;;;8.73;;
40781;SDS011;26493;51.938;7.626;2023-09-19T03:07:46;25.60;;;7.82;;
40781;SDS011;26493;51.938;7.626;2023-09-19T03:10:16;18.65;;;7.35;;
40781;SDS011;26493;51.938;7.626;2023-09-19T03:12:42;19.10;;;7.47;;
40781;SDS011;26493;51.938;7.626;2023-09-19T03:15:08;20.85;;;7.88;;
40781;SDS011;26493;51.938;7.626;2023-09-19T03:17:35;20.90;;;7.75;;
40781;SDS011;26493;51.938;7.626;2023-09-19T03:20:01;20.38;;;7.43;;
40781;SDS011;26493;51.938;7.626;2023-09-19T03:22:27;19.15;;;7.80;;
40781;SDS011;26493;51.938;7.626;2023-09-19T03:24:53;19.45;;;7.40;;
40781;SDS011;26493;51.938;7.626;2023-09-19T03:27:19;22.23;;;8.63;;
40781;SDS011;26493;51.938;7.626;2023-09-19T03:29:46;23.42;;;7.40;;
40781;SDS011;26493;51.938;7.626;2023-09-19T03:32:12;23.38;;;9.25;;
40781;SDS011;26493;51.938;7.626;2023-09-19T03:34:38;23.33;;;8.63;;
40781;SDS011;26493;51.938;7.626;2023-09-19T03:37:11;22.90;;;7.55;;
40781;SDS011;26493;51.938;7.626;2023-09-19T03:39:37;17.10;;;7.32;;
40781;SDS011;26493;51.938;7.626;2023-09-19T03:42:03;20.80;;;7.82;;
40781;SDS011;26493;51.938;7.626;2023-09-19T03:44:29;19.85;;;7.32;;
40781;SDS011;26493;51.938;7.626;2023-09-19T03:46:55;24.83;;;7.90;;
40781;SDS011;26493;51.938;7.626;2023-09-19T03:49:22;20.10;;;7.25;;
40781;SDS011;26493;51.938;7.626;2023-09-19T03:51:48;20.52;;;7.50;;
40781;SDS011;26493;51.938;7.626;2023-09-19T03:54:14;18.50;;;7.72;;
40781;SDS011;26493;51.938;7.626;2023-09-19T03:56:41;21.98;;;8.73;;
40781;SDS011;26493;51.938;7.626;2023-09-19T03:59:08;24.55;;;8.43;;
40781;SDS011;26493;51.938;7.626;2023-09-19T04:01:34;19.27;;;8.60;;
40781;SDS011;26493;51.938;7.626;2023-09-19T04:04:01;22.85;;;7.93;;
40781;SDS011;26493;51.938;7.626;2023-09-19T04:06:33;18.48;;;7.78;;
40781;SDS011;26493;51.938;7.626;2023-09-19T04:09:03;17.75;;;7.88;;
40781;SDS011;26493;51.938;7.626;2023-09-19T04:11:29;19.08;;;8.15;;
40781;SDS011;26493;51.938;7.626;2023-09-19T04:13:56;20.45;;;8.68;;
40781;SDS011;26493;51.938;7.626;2023-09-19T04:16:22;24.00;;;9.35;;
40781;SDS011;26493;51.938;7.626;2023-09-19T04:18:48;23.92;;;9.10;;
40781;SDS011;26493;51.938;7.626;2023-09-19T04:21:14;26.10;;;11.82;;
40781;SDS011;26493;51.938;7.626;2023-09-19T04:23:40;20.90;;;9.02;;
40781;SDS011;26493;51.938;7.626;2023-09-19T04:26:07;19.60;;;8.57;;
40781;SDS011;26493;51.938;7.626;2023-09-19T04:28:33;20.40;;;8.38;;
40781;SDS011;26493;51.938;7.626;2023-09-19T04:31:01;20.83;;;8.60;;
40781;SDS011;26493;51.938;7.626;2023-09-19T04:33:27;16.73;;;8.20;;
40781;SDS011;26493;51.938;7.626;2023-09-19T04:35:53;21.92;;;9.15;;
40781;SDS011;26493;51.938;7.626;2023-09-19T04:38:20;20.13;;;9.48;;
40781;SDS011;26493;51.938;7.626;2023-09-19T04:40:46;22.92;;;9.43;;
40781;SDS011;26493;51.938;7.626;2023-09-19T04:43:12;20.77;;;8.57;;
40781;SDS011;26493;51.938;7.626;2023-09-19T04:45:40;21.38;;;9.30;;
40781;SDS011;26493;51.938;7.626;2023-09-19T04:48:06;22.02;;;9.27;;
40781;SDS011;26493;51.938;7.626;2023-09-19T04:50:34;21.40;;;9.32;;
40781;SDS011;26493;51.938;7.626;2023-09-19T04:53:00;19.02;;;8.35;;
40781;SDS011;26493;51.938;7.626;2023-09-19T04:55:26;21.58;;;8.43;;
40781;SDS011;26493;51.938;7.626;2023-09-19T04:57:52;23.40;;;8.95;;
40781;SDS011;26493;51.938;7.626;2023-09-19T05:00:21;20.55;;;8.63;;
40781;SDS011;26493;51.938;7.626;2023-09-19T05:02:53;19.60;;;8.43;;
40781;SDS011;26493;51.938;7.626;2023-09-19T05:07:47;24.90;;;9.50;;
40781;SDS011;26493;51.938;7.626;2023-09-19T05:10:13;20.92;;;9.00;;
40781;SDS011;26493;51.938;7.626;2023-09-19T05:12:40;21.17;;;8.95;;
40781;SDS011;26493;51.938;7.626;2023-09-19T05:15:06;17.40;;;8.23;;
40781;SDS011;26493;51.938;7.626;2023-09-19T05:17:33;22.33;;;9.30;;
40781;SDS011;26493;51.938;7.626;2023-09-19T05:19:59;20.20;;;8.70;;
40781;SDS011;26493;51.938;7.626;2023-09-19T05:22:36;23.08;;;9.63;;
40781;SDS011;26493;51.938;7.626;2023-09-19T05:25:05;18.58;;;9.23;;
40781;SDS011;26493;51.938;7.626;2023-09-19T05:27:31;19.45;;;8.90;;
40781;SDS011;26493;51.938;7.626;2023-09-19T05:29:58;19.98;;;9.07;;
40781;SDS011;26493;51.938;7.626;2023-09-19T05:32:24;20.20;;;9.07;;
40781;SDS011;26493;51.938;7.626;2023-09-19T05:34:50;22.77;;;9.15;;
40781;SDS011;26493;51.938;7.626;2023-09-19T05:37:18;20.10;;;10.00;;
40781;SDS011;26493;51.938;7.626;2023-09-19T05:39:44;22.60;;;9.73;;
40781;SDS011;26493;51.938;7.626;2023-09-19T05:42:10;19.65;;;10.30;;
40781;SDS011;26493;51.938;7.626;2023-09-19T05:44:36;19.52;;;10.45;;
40781;SDS011;26493;51.938;7.626;2023-09-19T05:47:03;17.80;;;10.27;;
40781;SDS011;26493;51.938;7.626;2023-09-19T05:49:29;20.40;;;10.52;;
40781;SDS011;26493;51.938;7.626;2023-09-19T05:51:55;19.23;;;10.07;;
40781;SDS011;26493;51.938;7.626;2023-09-19T05:54:23;20.58;;;10.05;;
40781;SDS011;26493;51.938;7.626;2023-09-19T05:56:49;22.17;;;10.35;;
40781;SDS011;26493;51.938;7.626;2023-09-19T05:59:18;23.40;;;10.18;;
40781;SDS011;26493;51.938;7.626;2023-09-19T06:01:44;19.23;;;9.95;;
40781;SDS011;26493;51.938;7.626;2023-09-19T06:04:12;21.45;;;10.02;;
40781;SDS011;26493;51.938;7.626;2023-09-19T06:06:38;24.17;;;10.32;;
40781;SDS011;26493;51.938;7.626;2023-09-19T06:09:05;18.23;;;10.18;;
40781;SDS011;26493;51.938;7.626;2023-09-19T06:11:33;20.63;;;11.60;;
40781;SDS011;26493;51.938;7.626;2023-09-19T06:13:59;21.25;;;10.75;;
40781;SDS011;26493;51.938;7.626;2023-09-19T06:16:27;19.98;;;10.32;;
40781;SDS011;26493;51.938;7.626;2023-09-19T06:18:54;21.35;;;10.38;;
40781;SDS011;26493;51.938;7.626;2023-09-19T06:21:21;19.27;;;10.50;;
40781;SDS011;26493;51.938;7.626;2023-09-19T06:23:47;19.77;;;10.60;;
40781;SDS011;26493;51.938;7.626;2023-09-19T06:26:13;16.75;;;10.05;;
40781;SDS011;26493;51.938;7.626;2023-09-19T06:28:39;21.08;;;10.82;;
40781;SDS011;26493;51.938;7.626;2023-09-19T06:31:05;23.67;;;10.95;;
40781;SDS011;26493;51.938;7.626;2023-09-19T06:33:35;24.30;;;11.52;;
40781;SDS011;26493;51.938;7.626;2023-09-19T06:36:04;17.95;;;10.93;;
40781;SDS011;26493;51.938;7.626;2023-09-19T06:38:30;21.23;;;11.95;;
40781;SDS011;26493;51.938;7.626;2023-09-19T06:41:00;27.02;;;11.45;;
40781;SDS011;26493;51.938;7.626;2023-09-19T06:43:26;23.25;;;12.82;;
40781;SDS011;26493;51.938;7.626;2023-09-19T06:45:55;23.55;;;11.15;;
40781;SDS011;26493;51.938;7.626;2023-09-19T06:48:22;25.20;;;11.15;;
40781;SDS011;26493;51.938;7.626;2023-09-19T06:50:50;19.75;;;11.48;;
40781;SDS011;26493;51.938;7.626;2023-09-19T06:53:16;21.83;;;11.23;;
40781;SDS011;26493;51.938;7.626;2023-09-19T06:55:43;23.63;;;11.93;;
40781;SDS011;26493;51.938;7.626;2023-09-19T06:58:10;22.20;;;11.48;;
40781;SDS011;26493;51.938;7.626;2023-09-19T07:00:36;25.00;;;11.77;;
40781;SDS011;26493;51.938;7.626;2023-09-19T07:03:04;20.10;;;10.73;;
40781;SDS011;26493;51.938;7.626;2023-09-19T07:05:35;19.70;;;10.63;;
40781;SDS011;26493;51.938;7.626;2023-09-19T07:08:07;21.77;;;11.70;;
40781;SDS011;26493;51.938;7.626;2023-09-19T07:10:35;20.92;;;11.63;;
40781;SDS011;26493;51.938;7.626;2023-09-19T07:13:05;21.98;;;11.90;;
40781;SDS011;26493;51.938;7.626;2023-09-19T07:15:34;22.40;;;11.02;;
40781;SDS011;26493;51.938;7.626;2023-09-19T07:18:01;23.13;;;13.02;;
40781;SDS011;26493;51.938;7.626;2023-09-19T07:20:27;21.02;;;11.20;;
40781;SDS011;26493;51.938;7.626;2023-09-19T07:22:56;19.70;;;11.15;;
40781;SDS011;26493;51.938;7.626;2023-09-19T07:25:24;19.50;;;11.00;;
40781;SDS011;26493;51.938;7.626;2023-09-19T07:27:50;20.77;;;11.45;;
40781;SDS011;26493;51.938;7.626;2023-09-19T07:30:16;20.33;;;11.73;;
40781;SDS011;26493;51.938;7.626;2023-09-19T07:32:42;23.02;;;12.55;;
40781;SDS011;26493;51.938;7.626;2023-09-19T07:35:08;19.50;;;10.93;;
40781;SDS011;26493;51.938;7.626;2023-09-19T07:37:34;24.75;;;11.82;;
40781;SDS011;26493;51.938;7.626;2023-09-19T07:40:01;19.00;;;11.57;;
40781;SDS011;26493;51.938;7.626;2023-09-19T07:42:32;23.50;;;12.25;;
40781;SDS011;26493;51.938;7.626;2023-09-19T07:44:58;21.73;;;11.75;;
40781;SDS011;26493;51.938;7.626;2023-09-19T07:47:25;19.08;;;11.45;;
40781;SDS011;26493;51.938;7.626;2023-09-19T07:49:52;23.45;;;11.52;;
40781;SDS011;26493;51.938;7.626;2023-09-19T07:52:19;17.52;;;11.13;;
40781;SDS011;26493;51.938;7.626;2023-09-19T07:54:47;22.00;;;11.63;;
40781;SDS011;26493;51.938;7.626;2023-09-19T07:57:14;20.17;;;11.73;;
40781;SDS011;26493;51.938;7.626;2023-09-19T07:59:40;19.48;;;10.48;;
40781;SDS011;26493;51.938;7.626;2023-09-19T08:02:07;20.58;;;11.95;;
40781;SDS011;26493;51.938;7.626;2023-09-19T08:04:35;22.47;;;11.43;;
40781;SDS011;26493;51.938;7.626;2023-09-19T08:07:01;21.15;;;11.65;;
40781;SDS011;26493;51.938;7.626;2023-09-19T08:09:28;19.17;;;11.70;;
40781;SDS011;26493;51.938;7.626;2023-09-19T08:11:58;20.30;;;12.98;;
40781;SDS011;26493;51.938;7.626;2023-09-19T08:14:30;22.45;;;12.32;;
40781;SDS011;26493;51.938;7.626;2023-09-19T08:16:56;33.67;;;13.45;;
40781;SDS011;26493;51.938;7.626;2023-09-19T08:19:23;21.33;;;11.77;;
40781;SDS011;26493;51.938;7.626;2023-09-19T08:21:54;25.67;;;11.95;;
40781;SDS011;26493;51.938;7.626;2023-09-19T08:24:20;19.70;;;10.98;;
40781;SDS011;26493;51.938;7.626;2023-09-19T08:26:46;26.73;;;13.50;;
40781;SDS011;26493;51.938;7.626;2023-09-19T08:29:12;23.90;;;12.30;;
40781;SDS011;26493;51.938;7.626;2023-09-19T08:31:38;19.13;;;11.13;;
40781;SDS011;26493;51.938;7.626;2023-09-19T08:34:04;18.13;;;11.18;;
40781;SDS011;26493;51.938;7.626;2023-09-19T08:36:30;21.33;;;11.07;;
40781;SDS011;26493;51.938;7.626;2023-09-19T08:38:56;21.42;;;12.25;;
40781;SDS011;26493;51.938;7.626;2023-09-19T08:41:22;23.15;;;12.20;;
40781;SDS011;26493;51.938;7.626;2023-09-19T08:43:48;21.33;;;12.27;;
40781;SDS011;26493;51.938;7.626;2023-09-19T08:46:16;23.25;;;11.90;;
40781;SDS011;26493;51.938;7.626;2023-09-19T08:48:46;25.50;;;12.13;;
40781;SDS011;26493;51.938;7.626;2023-09-19T08:51:25;22.02;;;13.23;;
40781;SDS011;26493;51.938;7.626;2023-09-19T08:54:08;23.65;;;12.93;;
40781;SDS011;26493;51.938;7.626;2023-09-19T08:56:38;24.20;;;12.20;;
40781;SDS011;26493;51.938;7.626;2023-09-19T08:59:05;21.75;;;11.45;;
40781;SDS011;26493;51.938;7.626;2023-09-19T09:01:34;19.25;;;11.80;;
40781;SDS011;26493;51.938;7.626;2023-09-19T09:04:01;23.65;;;12.27;;
40781;SDS011;26493;51.938;7.626;2023-09-19T09:06:27;20.90;;;12.18;;
40781;SDS011;26493;51.938;7.626;2023-09-19T09:08:54;20.85;;;11.10;;
40781;SDS011;26493;51.938;7.626;2023-09-19T09:11:21;22.52;;;11.73;;
40781;SDS011;26493;51.938;7.626;2023-09-19T09:13:50;21.75;;;12.38;;
40781;SDS011;26493;51.938;7.626;2023-09-19T09:16:16;20.33;;;11.45;;
40781;SDS011;26493;51.938;7.626;2023-09-19T09:18:44;21.67;;;12.75;;
40781;SDS011;26493;51.938;7.626;2023-09-19T09:21:10;22.05;;;12.90;;
40781;SDS011;26493;51.938;7.626;2023-09-19T09:23:36;21.67;;;12.98;;
40781;SDS011;26493;51.938;7.626;2023-09-19T09:26:03;20.02;;;12.90;;
40781;SDS011;26493;51.938;7.626;2023-09-19T09:28:31;22.40;;;12.30;;
40781;SDS011;26493;51.938;7.626;2023-09-19T09:30:58;22.15;;;12.77;;
40781;SDS011;26493;51.938;7.626;2023-09-19T09:33:25;20.42;;;11.73;;
40781;SDS011;26493;51.938;7.626;2023-09-19T09:35:52;23.83;;;12.10;;
40781;SDS011;26493;51.938;7.626;2023-09-19T09:38:21;22.75;;;12.85;;
40781;SDS011;26493;51.938;7.626;2023-09-19T09:40:52;19.80;;;12.05;;
40781;SDS011;26493;51.938;7.626;2023-09-19T09:48:47;22.05;;;12.98;;
40781;SDS011;26493;51.938;7.626;2023-09-19T09:51:33;19.45;;;12.38;;
40781;SDS011;26493;51.938;7.626;2023-09-19T09:56:53;20.55;;;12.18;;
40781;SDS011;26493;51.938;7.626;2023-09-19T09:59:20;22.35;;;13.07;;
40781;SDS011;26493;51.938;7.626;2023-09-19T10:01:49;24.40;;;13.32;;
40781;SDS011;26493;51.938;7.626;2023-09-19T10:04:28;22.48;;;12.77;;
40781;SDS011;26493;51.938;7.626;2023-09-19T10:07:00;23.30;;;12.63;;
40781;SDS011;26493;51.938;7.626;2023-09-19T10:09:30;23.80;;;12.80;;
40781;SDS011;26493;51.938;7.626;2023-09-19T10:12:10;24.05;;;13.57;;
40781;SDS011;26493;51.938;7.626;2023-09-19T10:14:38;21.98;;;13.07;;
40781;SDS011;26493;51.938;7.626;2023-09-19T10:17:09;21.70;;;13.27;;
40781;SDS011;26493;51.938;7.626;2023-09-19T10:22:22;24.10;;;13.60;;
40781;SDS011;26493;51.938;7.626;2023-09-19T10:24:49;20.95;;;13.32;;
40781;SDS011;26493;51.938;7.626;2023-09-19T10:27:18;23.83;;;14.13;;
40781;SDS011;26493;51.938;7.626;2023-09-19T10:29:48;23.17;;;14.00;;
40781;SDS011;26493;51.938;7.626;2023-09-19T10:32:21;21.58;;;13.60;;
40781;SDS011;26493;51.938;7.626;2023-09-19T10:34:48;22.08;;;13.30;;
40781;SDS011;26493;51.938;7.626;2023-09-19T10:37:18;21.20;;;13.38;;
40781;SDS011;26493;51.938;7.626;2023-09-19T10:39:46;22.33;;;13.48;;
40781;SDS011;26493;51.938;7.626;2023-09-19T10:42:15;23.25;;;13.23;;
40781;SDS011;26493;51.938;7.626;2023-09-19T10:44:42;22.27;;;13.30;;
40781;SDS011;26493;51.938;7.626;2023-09-19T10:47:10;19.88;;;13.57;;
40781;SDS011;26493;51.938;7.626;2023-09-19T10:49:44;22.27;;;13.65;;
40781;SDS011;26493;51.938;7.626;2023-09-19T10:52:11;23.25;;;14.27;;
40781;SDS011;26493;51.938;7.626;2023-09-19T10:54:41;22.77;;;13.50;;
40781;SDS011;26493;51.938;7.626;2023-09-19T10:57:11;27.60;;;15.38;;
40781;SDS011;26493;51.938;7.626;2023-09-19T10:59:55;19.23;;;13.98;;
40781;SDS011;26493;51.938;7.626;2023-09-19T11:02:27;25.52;;;15.02;;
40781;SDS011;26493;51.938;7.626;2023-09-19T11:04:53;19.95;;;13.90;;
40781;SDS011;26493;51.938;7.626;2023-09-19T11:07:19;19.17;;;13.57;;
40781;SDS011;26493;51.938;7.626;2023-09-19T11:09:55;22.45;;;13.48;;
40781;SDS011;26493;51.938;7.626;2023-09-19T11:15:06;20.83;;;14.48;;
40781;SDS011;26493;51.938;7.626;2023-09-19T11:30:33;20.13;;;13.20;;
40781;SDS011;26493;51.938;7.626;2023-09-19T11:38:14;22.00;;;14.27;;
40781;SDS011;26493;51.938;7.626;2023-09-19T11:40:44;19.20;;;13.75;;
40781;SDS011;26493;51.938;7.626;2023-09-19T11:43:29;21.95;;;14.27;;
40781;SDS011;26493;51.938;7.626;2023-09-19T11:46:01;19.73;;;13.52;;
40781;SDS011;26493;51.938;7.626;2023-09-19T11:48:27;21.15;;;13.70;;
40781;SDS011;26493;51.938;7.626;2023-09-19T11:50:54;20.02;;;13.32;;
40781;SDS011;26493;51.938;7.626;2023-09-19T11:53:22;20.00;;;13.88;;
40781;SDS011;26493;51.938;7.626;2023-09-19T11:55:48;21.67;;;13.30;;
40781;SDS011;26493;51.938;7.626;2023-09-19T11:58:15;20.90;;;14.18;;
40781;SDS011;26493;51.938;7.626;2023-09-19T12:00:42;18.67;;;14.30;;
40781;SDS011;26493;51.938;7.626;2023-09-19T12:03:10;21.15;;;13.80;;
40781;SDS011;26493;51.938;7.626;2023-09-19T12:05:37;19.05;;;14.30;;
40781;SDS011;26493;51.938;7.626;2023-09-19T12:08:03;22.90;;;14.38;;
40781;SDS011;26493;51.938;7.626;2023-09-19T12:10:33;21.08;;;14.27;;
40781;SDS011;26493;51.938;7.626;2023-09-19T12:12:59;20.00;;;14.25;;
40781;SDS011;26493;51.938;7.626;2023-09-19T12:15:25;19.98;;;14.93;;
40781;SDS011;26493;51.938;7.626;2023-09-19T12:17:53;27.83;;;14.30;;
40781;SDS011;26493;51.938;7.626;2023-09-19T12:20:19;21.02;;;13.80;;
40781;SDS011;26493;51.938;7.626;2023-09-19T12:22:46;20.40;;;13.05;;
40781;SDS011;26493;51.938;7.626;2023-09-19T12:25:15;19.98;;;13.68;;
40781;SDS011;26493;51.938;7.626;2023-09-19T12:30:12;19.65;;;13.65;;
40781;SDS011;26493;51.938;7.626;2023-09-19T12:32:43;18.95;;;13.68;;
40781;SDS011;26493;51.938;7.626;2023-09-19T12:35:09;23.00;;;13.88;;
40781;SDS011;26493;51.938;7.626;2023-09-19T12:37:36;20.00;;;13.70;;
40781;SDS011;26493;51.938;7.626;2023-09-19T12:40:06;20.00;;;14.00;;
40781;SDS011;26493;51.938;7.626;2023-09-19T12:42:53;22.35;;;13.88;;
40781;SDS011;26493;51.938;7.626;2023-09-19T12:45:20;21.00;;;14.45;;
40781;SDS011;26493;51.938;7.626;2023-09-19T12:50:33;19.27;;;14.02;;
40781;SDS011;26493;51.938;7.626;2023-09-19T12:52:59;21.75;;;14.45;;
40781;SDS011;26493;51.938;7.626;2023-09-19T12:55:29;19.77;;;14.20;;
40781;SDS011;26493;51.938;7.626;2023-09-19T13:03:32;19.77;;;14.18;;
40781;SDS011;26493;51.938;7.626;2023-09-19T13:09:07;20.92;;;13.93;;
40781;SDS011;26493;51.938;7.626;2023-09-19T13:11:19;22.50;;;14.00;;
40781;SDS011;26493;51.938;7.626;2023-09-19T13:13:47;19.92;;;13.55;;
40781;SDS011;26493;51.938;7.626;2023-09-19T13:16:15;19.70;;;13.70;;
40781;SDS011;26493;51.938;7.626;2023-09-19T13:18:48;19.50;;;13.30;;
40781;SDS011;26493;51.938;7.626;2023-09-19T13:21:27;20.00;;;13.57;;
40781;SDS011;26493;51.938;7.626;2023-09-19T13:23:54;18.80;;;13.85;;
40781;SDS011;26493;51.938;7.626;2023-09-19T13:26:27;18.92;;;14.45;;
40781;SDS011;26493;51.938;7.626;2023-09-19T13:28:53;21.80;;;13.80;;
40781;SDS011;26493;51.938;7.626;2023-09-19T13:31:20;18.90;;;13.38;;
40781;SDS011;26493;51.938;7.626;2023-09-19T13:33:47;23.38;;;14.70;;
40781;SDS011;26493;51.938;7.626;2023-09-19T13:36:13;20.73;;;13.95;;
40781;SDS011;26493;51.938;7.626;2023-09-19T13:38:40;21.95;;;14.70;;
40781;SDS011;26493;51.938;7.626;2023-09-19T13:41:09;21.38;;;14.00;;
40781;SDS011;26493;51.938;7.626;2023-09-19T13:43:36;22.05;;;15.43;;
40781;SDS011;26493;51.938;7.626;2023-09-19T13:46:03;22.40;;;14.57;;
40781;SDS011;26493;51.938;7.626;2023-09-19T13:48:29;20.67;;;13.95;;
40781;SDS011;26493;51.938;7.626;2023-09-19T13:50:56;21.38;;;14.45;;
40781;SDS011;26493;51.938;7.626;2023-09-19T13:53:22;19.63;;;14.45;;
40781;SDS011;26493;51.938;7.626;2023-09-19T13:55:48;18.48;;;13.82;;
40781;SDS011;26493;51.938;7.626;2023-09-19T13:58:14;21.42;;;13.85;;
40781;SDS011;26493;51.938;7.626;2023-09-19T14:00:40;18.63;;;13.65;;
40781;SDS011;26493;51.938;7.626;2023-09-19T14:03:06;18.55;;;13.43;;
40781;SDS011;26493;51.938;7.626;2023-09-19T14:05:32;19.88;;;14.90;;
40781;SDS011;26493;51.938;7.626;2023-09-19T14:07:58;17.67;;;13.93;;
40781;SDS011;26493;51.938;7.626;2023-09-19T14:10:25;20.30;;;14.25;;
40781;SDS011;26493;51.938;7.626;2023-09-19T14:12:56;18.05;;;13.50;;
40781;SDS011;26493;51.938;7.626;2023-09-19T14:15:24;23.50;;;14.02;;
40781;SDS011;26493;51.938;7.626;2023-09-19T14:17:54;19.35;;;13.70;;
40781;SDS011;26493;51.938;7.626;2023-09-19T14:20:21;20.20;;;14.45;;
40781;SDS011;26493;51.938;7.626;2023-09-19T14:22:48;19.38;;;14.50;;
40781;SDS011;26493;51.938;7.626;2023-09-19T14:25:14;21.45;;;14.38;;
40781;SDS011;26493;51.938;7.626;2023-09-19T14:27:40;21.95;;;13.77;;
40781;SDS011;26493;51.938;7.626;2023-09-19T14:30:06;18.23;;;13.98;;
40781;SDS011;26493;51.938;7.626;2023-09-19T14:32:34;20.13;;;14.18;;
40781;SDS011;26493;51.938;7.626;2023-09-19T14:35:01;17.13;;;13.32;;
40781;SDS011;26493;51.938;7.626;2023-09-19T14:37:27;22.00;;;13.98;;
40781;SDS011;26493;51.938;7.626;2023-09-19T14:39:53;19.50;;;13.65;;
40781;SDS011;26493;51.938;7.626;2023-09-19T14:42:19;19.95;;;13.98;;
40781;SDS011;26493;51.938;7.626;2023-09-19T14:44:45;18.63;;;13.90;;
40781;SDS011;26493;51.938;7.626;2023-09-19T14:47:13;19.03;;;13.93;;
40781;SDS011;26493;51.938;7.626;2023-09-19T14:49:40;20.50;;;13.65;;
40781;SDS011;26493;51.938;7.626;2023-09-19T14:52:07;20.15;;;13.30;;
40781;SDS011;26493;51.938;7.626;2023-09-19T14:54:33;19.50;;;13.15;;
40781;SDS011;26493;51.938;7.626;2023-09-19T14:56:59;19.83;;;13.00;;
40781;SDS011;26493;51.938;7.626;2023-09-19T14:59:32;21.35;;;13.60;;
40781;SDS011;26493;51.938;7.626;2023-09-19T15:01:58;18.98;;;13.60;;
40781;SDS011;26493;51.938;7.626;2023-09-19T15:04:24;19.13;;;13.85;;
40781;SDS011;26493;51.938;7.626;2023-09-19T15:06:50;19.73;;;12.70;;
40781;SDS011;26493;51.938;7.626;2023-09-19T15:09:19;20.70;;;12.63;;
40781;SDS011;26493;51.938;7.626;2023-09-19T15:11:49;20.95;;;12.88;;
40781;SDS011;26493;51.938;7.626;2023-09-19T15:14:15;19.02;;;12.60;;
40781;SDS011;26493;51.938;7.626;2023-09-19T15:16:41;17.55;;;12.80;;
40781;SDS011;26493;51.938;7.626;2023-09-19T15:19:08;16.92;;;12.73;;
40781;SDS011;26493;51.938;7.626;2023-09-19T15:21:35;17.45;;;12.73;;
40781;SDS011;26493;51.938;7.626;2023-09-19T15:24:02;17.70;;;12.77;;
40781;SDS011;26493;51.938;7.626;2023-09-19T15:26:28;18.13;;;12.35;;
40781;SDS011;26493;51.938;7.626;2023-09-19T15:28:55;18.05;;;12.38;;
40781;SDS011;26493;51.938;7.626;2023-09-19T15:31:21;19.38;;;12.25;;
40781;SDS011;26493;51.938;7.626;2023-09-19T15:33:48;19.42;;;12.73;;
40781;SDS011;26493;51.938;7.626;2023-09-19T15:36:14;17.73;;;12.20;;